Time;durP1;ratioP1;P1;durP2;ratioP2;P2;SDS_P1;SDS_P2;PMS_P1;PMS_P2;Temp;Humidity;BMP_temperature;BMP_pressure;BME280_temperature;BME280_humidity;BME280_pressure;Samples;Min_cycle;Max_cycle;Signal;HPM_P1;HPM_P2
2023/04/16 00:02:24;;;;;;;3.80;2.53;;;8.80;99.90;;;;;;6165881;23;20202;-85
2023/04/16 00:04:50;;;;;;;1.23;1.03;;;8.80;99.90;;;;;;6158794;23;20194;-86
2023/04/16 00:07:15;;;;;;;2.70;2.20;;;8.80;99.90;;;;;;6180568;23;20196;-85
2023/04/16 00:09:41;;;;;;;2.37;2.13;;;8.80;99.90;;;;;;6182288;23;20159;-86
2023/04/16 00:12:07;;;;;;;8.80;3.70;;;8.70;99.90;;;;;;6155669;23;20818;-86
2023/04/16 00:14:33;;;;;;;9.67;3.70;;;8.80;99.90;;;;;;6180317;23;20217;-86
2023/04/16 00:16:59;;;;;;;4.13;3.17;;;8.80;99.90;;;;;;6160267;23;20195;-86
2023/04/16 00:19:24;;;;;;;4.53;4.07;;;8.80;99.90;;;;;;6158628;23;20264;-86
2023/04/16 00:21:50;;;;;;;4.00;2.50;;;8.80;99.90;;;;;;6211090;23;20154;-86
2023/04/16 00:24:16;;;;;;;2.93;2.73;;;8.80;99.90;;;;;;6185626;23;20240;-85
2023/04/16 00:26:43;;;;;;;8.83;2.90;;;8.80;99.90;;;;;;6211736;23;20193;-85
2023/04/16 00:29:09;;;;;;;7.77;4.60;;;8.80;99.90;;;;;;6185817;23;20265;-84
2023/04/16 00:31:35;;;;;;;3.57;2.70;;;8.80;99.90;;;;;;6207499;23;20763;-86
2023/04/16 00:34:01;;;;;;;6.80;3.23;;;8.80;99.90;;;;;;6233573;23;20225;-86
2023/04/16 00:36:27;;;;;;;4.50;2.90;;;8.90;99.90;;;;;;6211194;23;20204;-85
2023/04/16 00:38:54;;;;;;;4.97;3.07;;;8.90;99.90;;;;;;6210249;23;20198;-84
2023/04/16 00:41:21;;;;;;;4.43;3.83;;;8.90;99.90;;;;;;6211651;23;20648;-86
2023/04/16 00:43:47;;;;;;;4.33;3.23;;;8.90;99.90;;;;;;6210117;23;20209;-87
2023/04/16 00:46:15;;;;;;;8.77;3.13;;;8.90;99.90;;;;;;6210398;23;20186;-86
2023/04/16 00:48:42;;;;;;;4.17;2.87;;;8.90;99.90;;;;;;6211973;23;20161;-86
2023/04/16 00:51:08;;;;;;;4.70;4.30;;;8.90;99.90;;;;;;6211517;23;20505;-86
2023/04/16 00:53:35;;;;;;;7.47;2.77;;;8.80;99.90;;;;;;6209450;23;20202;-85
2023/04/16 00:56:05;;;;;;;11.10;3.43;;;8.90;99.90;;;;;;6235022;23;20193;-85
2023/04/16 00:58:34;;;;;;;3.80;2.80;;;8.90;99.90;;;;;;6235604;23;20194;-86
2023/04/16 01:01:00;;;;;;;6.10;5.60;;;8.90;99.90;;;;;;6211414;23;20151;-85
2023/04/16 01:03:38;;;;;;;3.40;3.10;;;8.90;99.90;;;;;;6235203;23;20200;-86
2023/04/16 01:06:05;;;;;;;4.33;2.90;;;8.80;99.90;;;;;;6211636;23;20189;-85
2023/04/16 01:08:30;;;;;;;4.97;3.10;;;8.80;99.90;;;;;;6209911;23;20507;-86
2023/04/16 01:10:56;;;;;;;4.23;3.87;;;8.80;99.90;;;;;;6210175;23;20182;-86
2023/04/16 01:13:22;;;;;;;2.70;2.33;;;8.80;99.90;;;;;;6234889;23;20340;-87
2023/04/16 01:15:48;;;;;;;10.77;3.10;;;8.80;99.90;;;;;;6210897;23;20208;-87
2023/04/16 01:18:19;;;;;;;16.63;5.63;;;8.80;99.90;;;;;;6209722;23;20197;-87
2023/04/16 01:20:46;;;;;;;5.63;3.40;;;8.80;99.90;;;;;;6211433;23;20494;-87
2023/04/16 01:23:12;;;;;;;4.43;3.93;;;8.80;99.90;;;;;;6210940;23;20252;-87
2023/04/16 01:25:38;;;;;;;14.87;4.30;;;8.80;99.90;;;;;;6209989;23;20198;-87
2023/04/16 01:28:04;;;;;;;14.97;5.67;;;8.80;99.90;;;;;;6210100;23;20596;-86
2023/04/16 01:30:30;;;;;;;14.87;6.30;;;8.90;99.90;;;;;;6209749;23;20186;-86
2023/04/16 01:32:57;;;;;;;4.50;3.50;;;8.90;99.90;;;;;;6208712;23;20255;-86
2023/04/16 01:35:23;;;;;;;8.37;3.83;;;8.90;99.90;;;;;;6209683;23;20641;-86
2023/04/16 01:37:50;;;;;;;12.47;4.40;;;8.90;99.90;;;;;;6234913;23;20256;-86
2023/04/16 01:40:16;;;;;;;8.67;3.53;;;8.80;99.90;;;;;;6234782;23;20207;-87
2023/04/16 01:42:42;;;;;;;12.77;3.47;;;8.80;99.90;;;;;;6210857;23;20640;-86
2023/04/16 01:45:08;;;;;;;8.57;6.83;;;8.90;99.90;;;;;;6211036;23;20197;-85
2023/04/16 01:47:34;;;;;;;8.23;4.07;;;8.90;99.90;;;;;;6209663;23;20194;-87
2023/04/16 01:50:01;;;;;;;4.07;3.77;;;8.80;99.90;;;;;;6209340;23;20248;-85
2023/04/16 01:52:27;;;;;;;14.00;5.93;;;8.90;99.90;;;;;;6209704;23;20224;-85
2023/04/16 01:54:52;;;;;;;10.30;5.30;;;8.90;99.90;;;;;;6210308;23;20565;-87
2023/04/16 01:57:18;;;;;;;14.53;6.70;;;8.90;99.90;;;;;;6210750;23;20700;-85
2023/04/16 01:59:44;;;;;;;4.50;4.10;;;8.90;99.90;;;;;;6208800;23;20194;-86
2023/04/16 02:02:11;;;;;;;7.33;4.33;;;8.90;99.90;;;;;;6184025;23;20194;-87
2023/04/16 02:04:42;;;;;;;32.67;6.83;;;8.90;99.90;;;;;;6210113;23;20283;-87
2023/04/16 02:07:08;;;;;;;15.70;6.10;;;8.90;99.90;;;;;;6234188;23;20150;-87
2023/04/16 02:09:35;;;;;;;12.03;3.83;;;8.90;99.90;;;;;;6234522;23;20280;-87
2023/04/16 02:12:04;;;;;;;8.87;5.27;;;8.90;99.90;;;;;;6209369;23;20194;-87
2023/04/16 02:14:31;;;;;;;8.70;5.03;;;8.90;99.90;;;;;;6209893;23;20201;-86
2023/04/16 02:16:57;;;;;;;15.43;6.03;;;8.90;99.90;;;;;;6234686;23;20189;-85
2023/04/16 02:19:22;;;;;;;13.13;6.57;;;9.00;99.90;;;;;;6209380;23;20209;-87
2023/04/16 02:21:51;;;;;;;11.30;5.67;;;9.00;99.90;;;;;;6209177;23;20177;-87
2023/04/16 02:24:16;;;;;;;7.70;6.77;;;9.00;99.90;;;;;;6208407;23;20200;-86
2023/04/16 02:26:42;;;;;;;19.30;6.50;;;9.00;99.90;;;;;;6183462;23;20265;-86
2023/04/16 02:29:08;;;;;;;15.43;7.97;;;9.00;99.90;;;;;;6209332;23;20761;-86
2023/04/16 02:31:34;;;;;;;24.87;9.47;;;9.00;99.90;;;;;;6184367;23;20247;-87
2023/04/16 02:34:00;;;;;;;12.10;7.93;;;9.00;99.90;;;;;;6209440;23;20202;-86
2023/04/16 02:36:26;;;;;;;20.97;7.27;;;9.00;99.90;;;;;;6209131;23;20764;-86
2023/04/16 02:38:52;;;;;;;9.33;6.93;;;9.00;99.90;;;;;;6209248;23;20240;-88
2023/04/16 02:41:17;;;;;;;11.10;6.13;;;9.10;99.90;;;;;;6184015;23;20185;-86
2023/04/16 02:43:43;;;;;;;15.33;7.67;;;9.10;99.90;;;;;;6234361;23;20747;-86
2023/04/16 02:46:09;;;;;;;11.03;6.30;;;9.00;99.90;;;;;;6209946;23;20200;-87
2023/04/16 02:48:35;;;;;;;5.47;3.63;;;9.00;99.90;;;;;;6208531;23;20268;-86
2023/04/16 02:51:00;;;;;;;15.13;7.10;;;9.00;99.90;;;;;;6232892;23;20201;-87
2023/04/16 02:53:26;;;;;;;13.80;7.30;;;9.00;99.90;;;;;;6209180;23;20201;-87
2023/04/16 02:55:53;;;;;;;11.13;6.37;;;9.10;99.90;;;;;;6209126;23;20680;-87
2023/04/16 02:58:20;;;;;;;16.47;6.80;;;9.10;99.90;;;;;;6209233;22;20176;-86
2023/04/16 03:00:45;;;;;;;16.57;7.13;;;9.10;99.90;;;;;;6208502;23;20154;-86
2023/04/16 03:03:11;;;;;;;11.03;6.30;;;9.10;99.90;;;;;;6233372;23;20265;-86
2023/04/16 03:05:37;;;;;;;8.50;6.70;;;9.10;99.90;;;;;;6208095;23;20533;-87
2023/04/16 03:08:03;;;;;;;26.13;8.17;;;9.10;99.90;;;;;;6207900;23;20213;-86
2023/04/16 03:10:29;;;;;;;11.33;7.03;;;9.10;99.90;;;;;;6209335;23;20154;-87
2023/04/16 03:12:55;;;;;;;12.50;6.23;;;9.20;99.90;;;;;;6208529;23;20181;-87
2023/04/16 03:15:21;;;;;;;13.00;5.37;;;9.20;99.90;;;;;;6208488;23;20821;-87
2023/04/16 03:17:46;;;;;;;13.03;8.73;;;9.20;99.90;;;;;;6235104;23;20194;-85
2023/04/16 03:20:13;;;;;;;11.23;5.97;;;9.20;99.90;;;;;;6210233;23;20731;-87
2023/04/16 03:22:39;;;;;;;16.10;6.73;;;9.20;99.90;;;;;;6236242;23;20641;-86
2023/04/16 03:25:06;;;;;;;9.53;6.20;;;9.20;99.90;;;;;;6186510;23;20573;-86
2023/04/16 03:27:33;;;;;;;15.40;5.17;;;9.20;99.90;;;;;;6210866;23;20263;-86
2023/04/16 03:29:59;;;;;;;18.17;6.67;;;9.10;99.90;;;;;;6235747;23;20186;-87
2023/04/16 03:32:24;;;;;;;7.90;5.37;;;9.10;99.90;;;;;;6184293;23;20392;-87
2023/04/16 03:34:50;;;;;;;7.13;5.57;;;9.10;99.90;;;;;;6211087;23;20221;-86
2023/04/16 03:37:16;;;;;;;8.80;6.30;;;9.10;99.90;;;;;;6210183;23;20157;-87
2023/04/16 03:39:42;;;;;;;12.30;5.83;;;9.10;99.90;;;;;;6210627;23;20166;-87
2023/04/16 03:42:08;;;;;;;9.47;6.37;;;9.10;99.90;;;;;;6210034;23;20190;-87
2023/04/16 03:44:33;;;;;;;16.27;4.73;;;9.10;99.90;;;;;;6209937;23;20194;-86
2023/04/16 03:46:59;;;;;;;12.43;7.13;;;9.10;99.90;;;;;;6235067;23;20205;-87
2023/04/16 03:49:25;;;;;;;7.93;4.33;;;9.10;99.90;;;;;;6211050;23;20648;-89
2023/04/16 03:51:51;;;;;;;8.20;5.60;;;9.10;99.90;;;;;;6235843;23;20154;-88
2023/04/16 03:54:16;;;;;;;16.57;7.33;;;9.10;99.90;;;;;;6210636;23;20281;-88
2023/04/16 03:56:42;;;;;;;6.73;4.60;;;9.10;99.90;;;;;;6210963;23;20198;-87
2023/04/16 03:59:08;;;;;;;7.17;5.13;;;9.10;99.90;;;;;;6211113;23;20201;-88
2023/04/16 04:01:34;;;;;;;3.00;2.33;;;9.10;99.90;;;;;;6211200;23;20197;-88
2023/04/16 04:04:00;;;;;;;7.77;5.33;;;9.10;99.90;;;;;;6211899;23;20162;-87
2023/04/16 04:06:26;;;;;;;9.73;5.50;;;9.10;99.90;;;;;;6211222;23;20199;-87
2023/04/16 04:08:52;;;;;;;6.90;4.23;;;9.10;99.90;;;;;;6212291;22;20217;-88
2023/04/16 04:11:18;;;;;;;7.30;3.33;;;9.10;99.90;;;;;;6211141;23;20265;-87
2023/04/16 04:13:44;;;;;;;4.10;3.70;;;9.00;99.90;;;;;;6212559;23;20214;-89
2023/04/16 04:16:10;;;;;;;8.90;3.20;;;9.10;99.90;;;;;;6211972;23;20158;-87
2023/04/16 04:18:36;;;;;;;3.13;2.93;;;9.00;99.90;;;;;;6211350;23;20269;-88
2023/04/16 04:21:08;;;;;;;3.60;3.20;;;9.00;99.90;;;;;;6212156;23;20194;-88
2023/04/16 04:23:34;;;;;;;6.90;4.20;;;9.00;99.90;;;;;;6211717;23;20193;-89
2023/04/16 04:26:02;;;;;;;5.10;2.27;;;9.00;99.90;;;;;;6211190;23;20185;-89
2023/04/16 04:28:32;;;;;;;4.80;4.00;;;9.00;99.90;;;;;;6212177;23;20275;-87
2023/04/16 04:30:59;;;;;;;13.17;2.83;;;9.00;99.90;;;;;;6210747;23;20158;-86
2023/04/16 04:33:25;;;;;;;10.73;3.77;;;9.00;99.90;;;;;;6234379;23;20201;-86
2023/04/16 04:35:51;;;;;;;8.17;4.33;;;9.00;99.90;;;;;;6235468;23;20198;-86
2023/04/16 04:38:21;;;;;;;13.70;2.83;;;9.00;99.90;;;;;;6210698;23;20345;-86
2023/04/16 04:40:53;;;;;;;13.03;5.37;;;9.00;99.90;;;;;;6211954;23;20182;-87
2023/04/16 04:43:21;;;;;;;6.50;3.50;;;9.00;99.90;;;;;;6185589;23;20240;-87
2023/04/16 04:45:48;;;;;;;16.93;4.37;;;9.00;99.90;;;;;;6210566;23;20157;-87
2023/04/16 04:48:14;;;;;;;5.83;3.23;;;9.00;99.90;;;;;;6235373;23;20189;-87
2023/04/16 04:50:41;;;;;;;12.30;4.63;;;9.00;99.90;;;;;;6185000;23;20220;-87
2023/04/16 04:53:10;;;;;;;6.37;4.77;;;9.00;99.90;;;;;;6235052;23;20688;-86
2023/04/16 04:55:37;;;;;;;5.00;3.57;;;9.00;99.90;;;;;;6209718;23;20301;-86
2023/04/16 04:58:04;;;;;;;15.97;4.70;;;9.00;99.90;;;;;;6211006;23;20154;-87
2023/04/16 05:00:31;;;;;;;9.10;5.40;;;9.00;99.90;;;;;;6209527;23;20196;-86
2023/04/16 05:02:57;;;;;;;8.20;4.70;;;9.00;99.90;;;;;;6210121;23;20245;-87
2023/04/16 05:05:22;;;;;;;9.03;5.80;;;9.00;99.90;;;;;;6185368;23;20213;-87
2023/04/16 05:07:48;;;;;;;10.70;4.80;;;9.00;99.90;;;;;;6210201;23;20213;-86
2023/04/16 05:10:14;;;;;;;4.83;2.97;;;9.10;99.90;;;;;;6209430;23;20157;-87
2023/04/16 05:12:40;;;;;;;9.00;5.00;;;9.10;99.90;;;;;;6210265;23;20465;-87
2023/04/16 05:15:06;;;;;;;12.00;3.67;;;9.10;99.90;;;;;;6209170;23;20186;-87
2023/04/16 05:17:32;;;;;;;15.20;5.37;;;9.10;99.90;;;;;;6209837;23;20190;-87
2023/04/16 05:19:57;;;;;;;14.07;4.07;;;9.10;99.90;;;;;;6210174;23;20224;-88
2023/04/16 05:22:23;;;;;;;3.43;3.13;;;9.10;99.90;;;;;;6210669;23;20152;-85
2023/04/16 05:24:49;;;;;;;6.60;4.33;;;9.00;99.90;;;;;;6210447;23;20154;-87
2023/04/16 05:27:15;;;;;;;7.63;5.17;;;9.10;99.90;;;;;;6209756;23;20196;-86
2023/04/16 05:29:54;;;;;;;5.47;2.67;;;9.10;99.90;;;;;;5038826;27;20626;-88
2023/04/16 05:32:20;;;;;;;5.30;3.33;;;9.10;99.90;;;;;;5046659;28;20222;-87
2023/04/16 05:34:45;;;;;;;2.53;2.20;;;9.10;99.90;;;;;;5040039;28;20245;-87
2023/04/16 05:37:11;;;;;;;8.60;4.90;;;9.00;99.90;;;;;;5056770;28;20190;-86
2023/04/16 05:39:37;;;;;;;3.23;2.83;;;9.10;99.90;;;;;;5040193;28;20289;-88
2023/04/16 05:42:03;;;;;;;2.17;1.97;;;9.00;99.90;;;;;;5040050;28;20687;-87
2023/04/16 05:44:28;;;;;;;2.47;2.37;;;9.00;99.90;;;;;;5056791;28;20683;-88
2023/04/16 05:46:54;;;;;;;15.23;2.77;;;9.00;99.90;;;;;;5056245;28;20218;-87
2023/04/16 05:49:21;;;;;;;4.03;2.73;;;9.00;99.90;;;;;;5056792;28;20742;-86
2023/04/16 05:51:47;;;;;;;7.83;2.87;;;9.00;99.90;;;;;;5040503;28;20284;-87
2023/04/16 05:54:13;;;;;;;4.27;3.90;;;9.00;99.90;;;;;;5048951;28;20214;-87
2023/04/16 05:56:38;;;;;;;1.33;1.27;;;9.00;99.90;;;;;;5039951;28;20221;-88
2023/04/16 05:59:04;;;;;;;5.00;3.70;;;9.00;99.90;;;;;;5040160;28;20229;-88
2023/04/16 06:01:32;;;;;;;2.60;2.33;;;9.00;99.90;;;;;;5040051;28;20617;-88
2023/04/16 06:03:57;;;;;;;9.90;4.47;;;9.00;99.90;;;;;;5048415;28;20221;-87
2023/04/16 06:06:23;;;;;;;6.43;3.03;;;9.00;99.90;;;;;;5038051;28;20313;-88
2023/04/16 06:08:49;;;;;;;15.20;4.17;;;9.00;99.90;;;;;;5038612;28;20625;-88
2023/04/16 06:11:15;;;;;;;5.10;4.63;;;9.10;99.90;;;;;;5037090;28;20280;-87
2023/04/16 06:13:41;;;;;;;6.00;4.47;;;9.10;99.90;;;;;;5037924;28;20222;-87
2023/04/16 06:16:07;;;;;;;5.23;3.90;;;9.10;99.90;;;;;;5039655;28;20209;-87
2023/04/16 06:18:32;;;;;;;5.30;3.83;;;9.10;99.90;;;;;;5039348;28;20221;-87
2023/04/16 06:20:58;;;;;;;12.80;5.30;;;9.10;99.90;;;;;;5039236;28;20287;-87
2023/04/16 06:23:28;;;;;;;5.20;4.23;;;9.10;99.90;;;;;;5055318;28;20679;-87
2023/04/16 06:25:54;;;;;;;5.87;4.10;;;9.10;99.90;;;;;;5054511;28;20579;-88
2023/04/16 06:28:20;;;;;;;13.30;4.13;;;9.10;99.90;;;;;;5052033;28;20292;-87
2023/04/16 06:30:46;;;;;;;2.47;2.03;;;9.10;99.90;;;;;;5037269;28;20827;-86
2023/04/16 06:33:12;;;;;;;2.47;2.20;;;9.10;99.90;;;;;;5036049;28;20276;-88
2023/04/16 06:35:37;;;;;;;10.00;1.47;;;9.10;99.90;;;;;;5036962;28;20209;-86
2023/04/16 06:38:03;;;;;;;4.07;2.90;;;9.10;99.90;;;;;;5036785;28;20222;-86
2023/04/16 06:40:29;;;;;;;4.47;3.40;;;9.20;99.90;;;;;;5029086;28;20199;-87
2023/04/16 06:42:55;;;;;;;3.23;2.93;;;9.20;99.90;;;;;;5041298;28;20186;-86
2023/04/16 06:45:21;;;;;;;3.80;3.50;;;9.20;99.90;;;;;;5024089;28;20755;-87
2023/04/16 06:47:46;;;;;;;9.10;5.67;;;9.30;99.90;;;;;;5040929;28;20229;-87
2023/04/16 06:50:12;;;;;;;3.13;2.20;;;9.30;99.90;;;;;;5041049;28;20218;-87
2023/04/16 06:52:38;;;;;;;10.20;5.57;;;9.40;99.90;;;;;;5025712;28;20333;-86
2023/04/16 06:55:07;;;;;;;11.40;4.07;;;9.40;99.90;;;;;;5024746;28;20198;-84
2023/04/16 06:57:32;;;;;;;7.10;3.40;;;9.40;99.90;;;;;;5039336;28;20218;-85
2023/04/16 06:59:58;;;;;;;10.03;3.77;;;9.40;99.90;;;;;;5040044;28;20706;-86
2023/04/16 07:02:24;;;;;;;12.10;3.77;;;9.40;99.90;;;;;;5022923;28;20305;-85
2023/04/16 07:04:51;;;;;;;4.27;2.43;;;9.40;99.90;;;;;;5038246;28;21071;-86
2023/04/16 07:07:17;;;;;;;22.93;4.63;;;9.40;99.90;;;;;;5021407;28;20194;-86
2023/04/16 07:09:43;;;;;;;5.30;3.77;;;9.50;99.90;;;;;;5023589;28;20221;-85
2023/04/16 07:12:10;;;;;;;13.13;5.13;;;9.50;99.90;;;;;;5038458;28;20210;-87
2023/04/16 07:14:35;;;;;;;7.13;2.73;;;9.50;99.90;;;;;;5020914;28;20272;-85
2023/04/16 07:17:01;;;;;;;14.53;3.93;;;9.50;99.90;;;;;;5037946;28;20218;-87
2023/04/16 07:19:31;;;;;;;15.67;5.27;;;9.50;99.90;;;;;;5037817;28;20218;-85
2023/04/16 07:21:59;;;;;;;7.37;3.60;;;9.50;99.90;;;;;;5038400;28;20198;-86
2023/04/16 07:24:28;;;;;;;5.27;3.87;;;9.60;99.90;;;;;;5022345;28;20305;-85
2023/04/16 07:26:54;;;;;;;11.27;6.70;;;9.60;99.90;;;;;;5020920;28;20222;-86
2023/04/16 07:29:19;;;;;;;9.30;6.47;;;9.50;99.90;;;;;;5019929;28;20284;-86
2023/04/16 07:31:45;;;;;;;4.33;3.93;;;9.50;99.90;;;;;;5022229;28;20753;-87
2023/04/16 07:34:11;;;;;;;5.90;4.83;;;9.60;99.90;;;;;;5021326;28;20750;-84
2023/04/16 07:36:37;;;;;;;22.27;3.77;;;9.60;99.90;;;;;;5022327;28;20191;-86
2023/04/16 07:39:06;;;;;;;11.93;6.03;;;9.60;99.90;;;;;;5035690;28;20222;-86
2023/04/16 07:41:32;;;;;;;11.27;5.80;;;9.70;99.90;;;;;;5036665;28;20222;-83
2023/04/16 07:43:58;;;;;;;15.63;4.83;;;9.80;99.90;;;;;;5023975;28;20230;-89
2023/04/16 07:46:24;;;;;;;6.77;4.77;;;9.80;99.90;;;;;;5005967;28;21131;-85
2023/04/16 07:48:49;;;;;;;9.63;4.47;;;9.80;99.90;;;;;;5023694;28;20199;-86
2023/04/16 07:51:15;;;;;;;3.93;3.20;;;9.80;99.90;;;;;;5020281;28;20219;-84
2023/04/16 07:53:42;;;;;;;11.17;5.27;;;9.80;99.90;;;;;;5021464;28;20265;-85
2023/04/16 07:56:08;;;;;;;10.87;3.13;;;9.80;99.90;;;;;;5022693;28;20359;-86
2023/04/16 07:58:34;;;;;;;4.53;3.87;;;9.80;99.90;;;;;;5023697;28;20301;-84
2023/04/16 08:01:00;;;;;;;13.63;4.73;;;9.80;99.90;;;;;;5019789;28;20197;-86
2023/04/16 08:03:26;;;;;;;15.10;4.13;;;9.80;99.90;;;;;;5019409;28;20225;-85
2023/04/16 08:05:51;;;;;;;3.90;3.27;;;9.80;99.90;;;;;;5035250;28;20631;-85
2023/04/16 08:08:17;;;;;;;9.87;4.43;;;9.80;99.90;;;;;;5035153;28;20227;-85
2023/04/16 08:10:43;;;;;;;8.63;4.57;;;9.90;99.90;;;;;;5020291;28;20234;-85
2023/04/16 08:13:09;;;;;;;9.50;4.77;;;9.90;99.90;;;;;;5000291;28;20198;-86
2023/04/16 08:15:35;;;;;;;7.90;5.53;;;10.00;99.90;;;;;;5019931;28;20245;-86
2023/04/16 08:18:00;;;;;;;4.47;4.17;;;10.00;99.90;;;;;;5011760;28;20222;-87
2023/04/16 08:20:26;;;;;;;14.53;6.70;;;9.90;99.90;;;;;;5019784;28;20214;-86
2023/04/16 08:22:53;;;;;;;4.43;3.10;;;10.00;99.90;;;;;;5016908;28;20561;-84
2023/04/16 08:25:19;;;;;;;10.10;5.97;;;10.10;99.90;;;;;;5017988;28;20273;-85
2023/04/16 08:27:45;;;;;;;10.67;5.47;;;10.10;99.90;;;;;;5017147;28;20226;-86
2023/04/16 08:30:11;;;;;;;6.47;4.57;;;10.00;99.90;;;;;;5003164;28;20448;-86
2023/04/16 08:32:37;;;;;;;13.93;5.17;;;10.00;99.90;;;;;;5020055;28;20597;-87
2023/04/16 08:35:03;;;;;;;10.00;5.53;;;9.90;99.90;;;;;;5036468;28;20242;-83
2023/04/16 08:37:28;;;;;;;9.13;5.30;;;9.90;99.90;;;;;;5019834;28;20314;-84
2023/04/16 08:39:54;;;;;;;9.97;4.00;;;10.10;99.90;;;;;;5020468;28;20671;-86
2023/04/16 08:42:31;;;;;;;15.17;4.33;;;10.10;99.90;;;;;;5019949;28;20201;-85
2023/04/16 08:45:06;;;;;;;4.90;4.07;;;10.20;99.90;;;;;;5019825;28;20344;-86
2023/04/16 08:47:34;;;;;;;7.40;4.60;;;10.20;99.90;;;;;;5019629;28;20236;-86
2023/04/16 08:50:03;;;;;;;5.50;3.33;;;10.10;99.90;;;;;;5021710;28;20291;-85
2023/04/16 08:52:30;;;;;;;8.57;5.30;;;10.20;99.90;;;;;;5019543;28;20234;-87
2023/04/16 08:55:03;;;;;;;9.93;5.53;;;10.20;99.90;;;;;;5019412;28;20186;-86
2023/04/16 08:57:37;;;;;;;5.50;4.73;;;10.30;99.90;;;;;;5019987;28;20208;-86
2023/04/16 09:00:03;;;;;;;11.03;5.10;;;10.30;99.90;;;;;;5020473;28;20226;-83
2023/04/16 09:02:30;;;;;;;5.33;4.20;;;10.20;99.90;;;;;;5035466;28;20224;-85
2023/04/16 09:04:59;;;;;;;10.80;4.03;;;10.20;99.90;;;;;;5020163;28;20759;-85
2023/04/16 09:07:26;;;;;;;9.70;3.60;;;10.10;99.90;;;;;;5018157;28;20238;-86
2023/04/16 09:09:53;;;;;;;7.77;4.43;;;10.40;99.90;;;;;;5035766;28;20222;-85
2023/04/16 09:12:22;;;;;;;11.30;5.00;;;10.30;99.90;;;;;;5019973;28;20226;-86
2023/04/16 09:14:51;;;;;;;6.07;4.30;;;10.30;99.90;;;;;;5036259;28;21012;-86
2023/04/16 09:17:17;;;;;;;12.77;5.10;;;10.40;99.90;;;;;;5017027;28;20230;-86
2023/04/16 09:19:44;;;;;;;14.90;5.27;;;10.40;99.90;;;;;;5020328;28;20233;-86
2023/04/16 09:22:11;;;;;;;6.30;4.27;;;10.40;99.90;;;;;;5018421;28;20239;-86
2023/04/16 09:24:37;;;;;;;5.73;3.60;;;10.30;99.90;;;;;;5020140;28;20183;-86
2023/04/16 09:27:03;;;;;;;7.80;6.40;;;10.40;99.90;;;;;;5017375;28;20325;-86
2023/04/16 09:29:37;;;;;;;5.53;4.93;;;10.40;99.90;;;;;;5018269;28;20288;-85
2023/04/16 09:32:05;;;;;;;14.20;7.47;;;10.30;99.90;;;;;;5034882;28;20233;-85
2023/04/16 09:34:34;;;;;;;17.33;5.33;;;10.40;99.90;;;;;;5019358;28;20219;-86
2023/04/16 09:37:19;;;;;;;6.50;3.47;;;10.60;99.90;;;;;;5032954;28;20670;-87
2023/04/16 09:39:57;;;;;;;12.13;5.17;;;10.60;99.90;;;;;;5035386;28;20685;-90
2023/04/16 09:42:27;;;;;;;13.60;4.87;;;10.70;99.90;;;;;;5020161;28;20197;-86
2023/04/16 09:44:54;;;;;;;8.20;5.80;;;10.70;99.90;;;;;;5019390;28;20274;-87
2023/04/16 09:47:20;;;;;;;17.83;5.17;;;10.60;99.90;;;;;;5016937;28;20284;-85
2023/04/16 09:49:47;;;;;;;10.27;6.30;;;10.70;99.90;;;;;;5020227;28;20298;-86
2023/04/16 09:52:17;;;;;;;6.83;3.97;;;10.80;99.90;;;;;;5017263;28;20218;-86
2023/04/16 09:54:51;;;;;;;5.97;5.00;;;10.60;99.90;;;;;;5017511;28;20186;-85
2023/04/16 09:57:21;;;;;;;5.50;4.53;;;10.70;99.90;;;;;;5016780;28;20207;-85
2023/04/16 09:59:51;;;;;;;8.17;4.40;;;10.40;99.90;;;;;;5032418;28;20559;-86
2023/04/16 10:02:17;;;;;;;7.50;3.87;;;10.50;99.90;;;;;;5018708;28;20245;-85
2023/04/16 10:04:46;;;;;;;7.47;4.83;;;10.60;99.90;;;;;;5018517;28;20736;-85
2023/04/16 10:07:12;;;;;;;8.30;5.50;;;10.60;99.90;;;;;;5030057;28;20222;-85
2023/04/16 10:09:39;;;;;;;7.07;6.33;;;10.80;99.90;;;;;;5019966;28;21052;-87
2023/04/16 10:12:05;;;;;;;8.80;4.73;;;10.60;99.90;;;;;;5017439;28;20222;-87
2023/04/16 10:14:32;;;;;;;9.47;4.53;;;10.70;99.90;;;;;;5017151;28;20219;-86
2023/04/16 10:16:59;;;;;;;9.90;6.23;;;10.50;99.90;;;;;;5027892;28;20242;-86
2023/04/16 10:19:26;;;;;;;6.07;5.00;;;10.40;99.90;;;;;;5034357;28;20222;-86
2023/04/16 10:21:53;;;;;;;9.43;4.27;;;10.40;99.90;;;;;;5022048;28;20187;-84
2023/04/16 10:24:19;;;;;;;8.57;3.50;;;10.50;99.90;;;;;;5022584;28;20876;-86
2023/04/16 10:26:48;;;;;;;7.83;4.07;;;10.20;99.90;;;;;;5034994;28;20238;-85
2023/04/16 10:29:15;;;;;;;15.20;5.27;;;10.50;99.90;;;;;;5023222;28;20578;-84
2023/04/16 10:31:41;;;;;;;10.70;4.43;;;10.70;99.90;;;;;;5034316;28;20230;-87
2023/04/16 10:34:08;;;;;;;8.87;6.03;;;10.80;99.90;;;;;;5019601;28;20258;-86
2023/04/16 10:36:38;;;;;;;14.10;4.77;;;10.80;99.90;;;;;;5019316;28;20194;-86
2023/04/16 10:39:12;;;;;;;6.97;5.00;;;10.70;99.90;;;;;;5022505;28;20317;-85
2023/04/16 10:41:38;;;;;;;6.17;4.40;;;10.90;99.90;;;;;;5021785;28;20222;-85
2023/04/16 10:44:09;;;;;;;8.23;4.97;;;11.00;99.90;;;;;;5037884;28;20218;-85
2023/04/16 10:46:42;;;;;;;8.53;5.43;;;11.10;99.90;;;;;;5019646;28;20223;-87
2023/04/16 10:49:14;;;;;;;13.73;5.50;;;11.20;99.90;;;;;;5039216;28;20237;-86
2023/04/16 10:51:40;;;;;;;11.67;4.50;;;11.00;99.90;;;;;;5022731;28;20187;-86
2023/04/16 10:54:13;;;;;;;8.30;5.43;;;10.90;99.90;;;;;;5023122;28;20321;-86
2023/04/16 10:56:39;;;;;;;7.50;5.43;;;10.80;99.90;;;;;;5035318;28;20229;-86
2023/04/16 10:59:06;;;;;;;6.77;4.07;;;10.70;99.90;;;;;;5023216;28;20300;-86
2023/04/16 11:01:39;;;;;;;7.43;4.77;;;10.60;99.90;;;;;;5022260;28;20217;-85
2023/04/16 11:04:21;;;;;;;10.90;5.07;;;10.70;99.90;;;;;;5021967;28;20248;-85
2023/04/16 11:07:05;;;;;;;16.50;5.30;;;10.50;99.90;;;;;;5023443;28;20252;-89
2023/04/16 11:09:46;;;;;;;4.53;3.50;;;10.80;99.90;;;;;;5038236;28;20615;-86
2023/04/16 11:12:14;;;;;;;4.37;3.10;;;10.60;99.90;;;;;;5022900;28;20297;-87
2023/04/16 11:14:40;;;;;;;10.73;5.13;;;10.80;99.90;;;;;;5021127;28;20280;-87
2023/04/16 11:17:07;;;;;;;3.10;2.27;;;10.90;99.90;;;;;;5022345;28;20218;-87
2023/04/16 11:19:35;;;;;;;5.57;4.20;;;10.80;99.90;;;;;;5020424;28;20735;-86
2023/04/16 11:22:02;;;;;;;5.80;4.53;;;10.70;99.90;;;;;;5021523;28;20301;-86
2023/04/16 11:24:34;;;;;;;19.17;6.87;;;10.80;99.90;;;;;;5021513;28;20652;-86
2023/04/16 11:27:00;;;;;;;3.20;2.33;;;10.90;99.90;;;;;;5020535;28;20225;-85
2023/04/16 11:29:26;;;;;;;8.57;5.57;;;10.80;99.90;;;;;;5036657;28;20238;-87
2023/04/16 11:31:53;;;;;;;6.90;5.03;;;10.80;99.90;;;;;;5020546;28;20581;-86
2023/04/16 11:34:22;;;;;;;6.60;4.37;;;11.00;99.90;;;;;;5038244;28;20215;-86
2023/04/16 11:36:50;;;;;;;10.23;3.00;;;11.20;99.90;;;;;;5038422;28;20194;-84
2023/04/16 11:39:19;;;;;;;13.93;6.83;;;10.80;99.90;;;;;;5023849;28;20321;-84
2023/04/16 11:41:46;;;;;;;8.60;5.73;;;11.00;99.90;;;;;;5022154;28;20223;-85
2023/04/16 11:44:20;;;;;;;10.00;6.10;;;11.20;99.90;;;;;;5022225;28;20826;-84
2023/04/16 11:46:46;;;;;;;7.23;4.83;;;11.30;99.90;;;;;;5038263;28;20633;-85
2023/04/16 11:49:11;;;;;;;21.93;7.07;;;11.00;99.90;;;;;;5023025;28;20284;-85
2023/04/16 11:51:41;;;;;;;9.73;5.33;;;11.10;99.90;;;;;;5021710;28;20720;-86
2023/04/16 11:54:08;;;;;;;11.93;5.17;;;11.20;99.90;;;;;;5036843;28;20240;-86
2023/04/16 11:56:36;;;;;;;9.77;5.93;;;11.10;99.90;;;;;;5020592;28;20942;-86
2023/04/16 11:59:06;;;;;;;10.97;7.20;;;11.20;99.90;;;;;;5021844;28;20628;-86
2023/04/16 12:01:35;;;;;;;7.20;4.90;;;11.50;99.90;;;;;;5021992;28;20222;-87
2023/04/16 12:04:01;;;;;;;10.43;6.00;;;11.70;99.90;;;;;;5025664;28;20230;-87
2023/04/16 12:06:27;;;;;;;6.90;5.53;;;11.70;99.90;;;;;;5021530;28;20237;-85
2023/04/16 12:08:53;;;;;;;8.83;5.50;;;11.30;99.90;;;;;;5036551;28;20794;-85
2023/04/16 12:11:22;;;;;;;7.57;5.93;;;11.60;99.90;;;;;;5035884;28;20243;-85
2023/04/16 12:14:07;;;;;;;14.60;6.60;;;11.50;99.90;;;;;;5037249;28;20253;-85
2023/04/16 12:16:36;;;;;;;6.60;5.43;;;11.70;99.90;;;;;;5019231;28;20229;-85
2023/04/16 12:19:03;;;;;;;11.50;7.07;;;11.80;99.90;;;;;;5037661;28;20607;-86
2023/04/16 12:21:44;;;;;;;12.17;5.83;;;11.90;99.90;;;;;;5021983;28;20221;-86
2023/04/16 12:24:14;;;;;;;8.27;5.67;;;11.90;99.90;;;;;;5021615;28;20224;-85
2023/04/16 12:26:47;;;;;;;7.17;5.40;;;12.10;99.90;;;;;;5023213;28;20533;-85
2023/04/16 12:29:17;;;;;;;8.67;5.17;;;12.00;99.90;;;;;;5022815;28;20855;-85
2023/04/16 12:31:43;;;;;;;15.47;7.23;;;12.10;99.90;;;;;;5037263;28;20556;-84
2023/04/16 12:34:14;;;;;;;7.67;4.63;;;12.30;99.90;;;;;;5037651;28;20218;-84
2023/04/16 12:36:40;;;;;;;17.40;6.73;;;12.00;99.90;;;;;;5022849;28;20206;-85
2023/04/16 12:39:06;;;;;;;8.63;5.70;;;12.00;99.90;;;;;;5021295;28;20222;-86
2023/04/16 12:41:34;;;;;;;10.47;6.07;;;12.10;99.90;;;;;;5037071;28;20220;-86
2023/04/16 12:44:15;;;;;;;19.80;6.27;;;12.20;99.90;;;;;;5020334;28;20229;-86
2023/04/16 12:46:42;;;;;;;11.80;5.33;;;12.10;99.90;;;;;;5014049;28;20332;-86
2023/04/16 12:49:09;;;;;;;10.60;5.73;;;12.30;99.90;;;;;;5029320;28;20226;-85
2023/04/16 12:51:36;;;;;;;17.80;6.80;;;12.00;99.90;;;;;;5021657;28;20778;-84